Time;durP1;ratioP1;P1;durP2;ratioP2;P2;SDS_P1;SDS_P2;PMS_P1;PMS_P2;Temp;Humidity;BMP_temperature;BMP_pressure;BME280_temperature;BME280_humidity;BME280_pressure;Samples;Min_cycle;Max_cycle;Signal;HPM_P1;HPM_P2
2021/08/26 00:01:13;;;;;;;3.63;3.33;;;;;;;;;;5073033;28;20445;-64
2021/08/26 00:06:25;;;;;;;4.13;3.33;;;;;;;;;;5073061;28;20768;-64
2021/08/26 00:08:54;;;;;;;6.30;3.03;;;;;;;;;;5072133;28;20477;-64
2021/08/26 00:11:23;;;;;;;3.63;3.00;;;;;;;;;;5072063;28;20441;-64
2021/08/26 00:13:52;;;;;;;3.93;3.53;;;;;;;;;;5073058;28;20935;-64
2021/08/26 00:16:20;;;;;;;3.10;2.80;;;;;;;;;;5073230;28;20483;-65
2021/08/26 00:18:47;;;;;;;5.47;4.00;;;;;;;;;;5072698;28;20440;-65
2021/08/26 00:21:14;;;;;;;9.10;3.77;;;;;;;;;;5073227;28;20444;-65
2021/08/26 00:23:41;;;;;;;5.33;3.90;;;;;;;;;;5072610;28;20472;-65
2021/08/26 00:26:09;;;;;;;6.10;3.60;;;;;;;;;;5073174;28;20523;-65
2021/08/26 00:28:36;;;;;;;6.63;3.73;;;;;;;;;;5071816;28;20801;-65
2021/08/26 00:31:05;;;;;;;4.33;3.40;;;;;;;;;;5072613;28;20443;-65
2021/08/26 00:33:32;;;;;;;7.00;3.57;;;;;;;;;;5072842;28;20471;-65
2021/08/26 00:35:59;;;;;;;4.60;3.70;;;;;;;;;;5072719;28;20484;-64
2021/08/26 00:38:27;;;;;;;7.03;3.80;;;;;;;;;;5072640;28;20440;-66
2021/08/26 00:40:54;;;;;;;5.57;4.10;;;;;;;;;;5073041;28;20448;-65
2021/08/26 00:43:22;;;;;;;6.47;4.43;;;;;;;;;;5072834;28;20933;-65
2021/08/26 00:45:50;;;;;;;5.70;3.60;;;;;;;;;;5072954;28;20440;-65
2021/08/26 00:48:19;;;;;;;4.10;3.63;;;;;;;;;;5072434;28;20449;-65
2021/08/26 00:50:46;;;;;;;7.80;4.90;;;;;;;;;;5072902;28;20441;-65
2021/08/26 00:53:13;;;;;;;9.90;4.60;;;;;;;;;;5073013;28;20451;-65
2021/08/26 00:55:40;;;;;;;6.50;4.43;;;;;;;;;;5072993;28;20446;-65
2021/08/26 00:58:07;;;;;;;8.90;4.70;;;;;;;;;;5071432;28;20472;-65
2021/08/26 01:00:35;;;;;;;8.10;5.20;;;;;;;;;;5071856;28;20947;-65
2021/08/26 01:03:06;;;;;;;6.40;4.10;;;;;;;;;;5074501;28;20555;-65
2021/08/26 01:05:38;;;;;;;7.07;4.77;;;;;;;;;;5076238;28;20432;-65
2021/08/26 01:08:08;;;;;;;16.53;5.60;;;;;;;;;;5076974;28;20850;-65
2021/08/26 01:10:36;;;;;;;8.23;4.73;;;;;;;;;;5076242;28;20440;-65
2021/08/26 01:13:03;;;;;;;6.63;4.20;;;;;;;;;;5075987;28;20463;-65
2021/08/26 01:15:31;;;;;;;5.43;3.80;;;;;;;;;;5077154;28;20768;-65
2021/08/26 01:17:58;;;;;;;9.97;4.60;;;;;;;;;;5075864;28;20472;-64
2021/08/26 01:20:25;;;;;;;11.40;4.90;;;;;;;;;;5076046;28;20836;-65
2021/08/26 01:22:54;;;;;;;9.20;4.60;;;;;;;;;;5076490;28;20494;-65
2021/08/26 01:25:23;;;;;;;8.63;4.63;;;;;;;;;;5075865;28;20467;-65
2021/08/26 01:27:53;;;;;;;5.00;4.07;;;;;;;;;;5076172;28;20812;-65
2021/08/26 01:30:21;;;;;;;8.60;4.07;;;;;;;;;;5074232;28;20464;-66
2021/08/26 01:32:51;;;;;;;5.80;4.00;;;;;;;;;;5075836;28;20451;-66
2021/08/26 01:35:18;;;;;;;8.53;4.67;;;;;;;;;;5076553;28;20842;-65
2021/08/26 01:37:46;;;;;;;11.30;4.50;;;;;;;;;;5075265;28;21040;-65
2021/08/26 01:40:14;;;;;;;6.60;4.70;;;;;;;;;;5075920;28;20448;-65
2021/08/26 01:42:42;;;;;;;9.70;3.70;;;;;;;;;;5075785;28;20445;-66
2021/08/26 01:45:11;;;;;;;7.00;3.73;;;;;;;;;;5075811;28;20506;-66
2021/08/26 01:47:39;;;;;;;11.63;4.33;;;;;;;;;;5076179;28;20441;-66
2021/08/26 01:50:07;;;;;;;8.93;4.33;;;;;;;;;;5074890;28;20933;-65
2021/08/26 01:52:34;;;;;;;5.20;3.83;;;;;;;;;;5075358;28;21009;-66
2021/08/26 01:55:02;;;;;;;9.27;4.03;;;;;;;;;;5076114;28;20539;-66
2021/08/26 01:57:30;;;;;;;10.57;4.20;;;;;;;;;;5073307;28;20490;-65
2021/08/26 01:59:58;;;;;;;6.10;3.97;;;;;;;;;;5074415;28;20437;-66
2021/08/26 02:02:27;;;;;;;10.60;4.90;;;;;;;;;;5075446;28;20447;-66
2021/08/26 02:04:54;;;;;;;7.27;4.60;;;;;;;;;;5074938;28;20942;-66
2021/08/26 02:07:21;;;;;;;9.30;3.93;;;;;;;;;;5075240;28;20441;-66
2021/08/26 02:09:48;;;;;;;11.67;4.80;;;;;;;;;;5075070;28;20470;-65
2021/08/26 02:12:16;;;;;;;8.73;4.57;;;;;;;;;;5074995;28;20539;-66
2021/08/26 02:14:43;;;;;;;11.27;4.00;;;;;;;;;;5074013;28;20445;-65
2021/08/26 02:17:11;;;;;;;12.10;4.10;;;;;;;;;;5074803;28;20476;-65
2021/08/26 02:19:39;;;;;;;8.80;4.60;;;;;;;;;;5074620;28;20444;-65
2021/08/26 02:22:06;;;;;;;5.43;4.13;;;;;;;;;;5074958;28;20525;-65
2021/08/26 02:24:34;;;;;;;9.37;4.00;;;;;;;;;;5074877;28;20921;-66
2021/08/26 02:27:01;;;;;;;7.83;4.37;;;;;;;;;;5074984;28;20446;-65
2021/08/26 02:29:28;;;;;;;10.83;4.30;;;;;;;;;;5073554;28;20451;-66
2021/08/26 02:31:55;;;;;;;7.97;3.43;;;;;;;;;;5074303;28;20467;-66
2021/08/26 02:34:22;;;;;;;10.80;3.57;;;;;;;;;;5074461;28;20456;-66
2021/08/26 02:36:51;;;;;;;10.10;3.90;;;;;;;;;;5074349;28;20472;-66
2021/08/26 02:39:18;;;;;;;7.80;3.60;;;;;;;;;;5074518;28;20817;-66
2021/08/26 02:41:45;;;;;;;9.43;3.73;;;;;;;;;;5074769;28;20447;-66
2021/08/26 02:44:12;;;;;;;13.03;4.17;;;;;;;;;;5074654;28;20448;-66
2021/08/26 02:46:40;;;;;;;12.83;4.20;;;;;;;;;;5074614;28;20489;-66
2021/08/26 02:49:07;;;;;;;10.40;3.63;;;;;;;;;;5074073;28;20491;-66
2021/08/26 02:51:34;;;;;;;12.97;4.50;;;;;;;;;;5074480;28;20436;-67
2021/08/26 02:54:03;;;;;;;10.30;4.57;;;;;;;;;;5074511;28;20806;-67
2021/08/26 02:56:30;;;;;;;11.50;4.77;;;;;;;;;;5074765;28;20440;-66
2021/08/26 02:58:57;;;;;;;5.10;3.93;;;;;;;;;;5072238;28;20441;-66
2021/08/26 03:01:25;;;;;;;15.77;5.30;;;;;;;;;;5073148;28;20452;-67
2021/08/26 03:03:52;;;;;;;11.47;4.83;;;;;;;;;;5073225;28;20814;-66
2021/08/26 03:06:19;;;;;;;7.27;3.97;;;;;;;;;;5072986;28;20515;-67
2021/08/26 03:08:46;;;;;;;12.43;4.03;;;;;;;;;;5073498;28;20444;-66
2021/08/26 03:11:15;;;;;;;14.47;5.70;;;;;;;;;;5073913;28;20811;-67
2021/08/26 03:13:42;;;;;;;9.10;4.60;;;;;;;;;;5073557;28;20514;-66
2021/08/26 03:16:09;;;;;;;16.37;4.73;;;;;;;;;;5074098;28;20445;-66
2021/08/26 03:18:36;;;;;;;23.03;5.70;;;;;;;;;;5073863;28;20476;-67
2021/08/26 03:21:04;;;;;;;13.00;5.50;;;;;;;;;;5074011;28;20467;-67
2021/08/26 03:23:31;;;;;;;13.73;4.10;;;;;;;;;;5074004;28;20473;-67
2021/08/26 03:25:58;;;;;;;7.83;4.23;;;;;;;;;;5073448;28;20440;-68
2021/08/26 03:28:26;;;;;;;13.90;4.97;;;;;;;;;;5072045;28;20459;-67
2021/08/26 03:30:54;;;;;;;9.83;4.53;;;;;;;;;;5073171;28;20809;-67
2021/08/26 03:33:21;;;;;;;15.47;5.07;;;;;;;;;;5074320;28;20455;-67
2021/08/26 03:35:49;;;;;;;11.93;4.50;;;;;;;;;;5073727;28;20437;-67
2021/08/26 03:38:16;;;;;;;14.13;5.90;;;;;;;;;;5073390;28;20555;-67
2021/08/26 03:40:43;;;;;;;13.67;4.83;;;;;;;;;;5073090;28;20441;-68
2021/08/26 03:43:11;;;;;;;8.13;4.30;;;;;;;;;;5073655;28;20445;-68
2021/08/26 03:45:39;;;;;;;13.20;4.40;;;;;;;;;;5073599;28;20443;-68
2021/08/26 03:48:07;;;;;;;12.80;5.33;;;;;;;;;;5073566;28;20440;-68
2021/08/26 03:50:34;;;;;;;13.70;4.93;;;;;;;;;;5073011;28;20441;-68
2021/08/26 03:53:01;;;;;;;11.50;4.93;;;;;;;;;;5073572;28;20440;-68
2021/08/26 03:55:28;;;;;;;12.33;5.30;;;;;;;;;;5073785;28;20452;-68
2021/08/26 03:57:56;;;;;;;18.40;5.00;;;;;;;;;;5073462;28;20587;-68
2021/08/26 04:00:23;;;;;;;12.87;4.30;;;;;;;;;;5072105;28;20448;-68
2021/08/26 04:02:51;;;;;;;11.30;4.27;;;;;;;;;;5072762;28;20461;-68
2021/08/26 04:05:18;;;;;;;16.60;4.40;;;;;;;;;;5073924;28;20444;-68
2021/08/26 04:07:46;;;;;;;12.73;4.50;;;;;;;;;;5073292;28;20444;-68
2021/08/26 04:10:13;;;;;;;12.73;5.40;;;;;;;;;;5073271;28;20439;-68
2021/08/26 04:12:40;;;;;;;11.87;4.90;;;;;;;;;;5073822;28;20437;-67
2021/08/26 04:15:08;;;;;;;11.00;4.83;;;;;;;;;;5073192;28;20529;-73
2021/08/26 04:17:35;;;;;;;12.77;5.50;;;;;;;;;;5073237;28;20484;-73
2021/08/26 04:20:04;;;;;;;16.73;5.00;;;;;;;;;;5073046;28;20942;-72
2021/08/26 04:22:31;;;;;;;20.50;5.17;;;;;;;;;;5073121;28;20509;-74
2021/08/26 04:24:58;;;;;;;14.63;5.57;;;;;;;;;;5072784;28;21006;-72
2021/08/26 04:27:26;;;;;;;9.53;4.23;;;;;;;;;;5072184;28;20444;-73
2021/08/26 04:29:53;;;;;;;15.00;5.33;;;;;;;;;;5072772;28;20444;-73
2021/08/26 04:32:20;;;;;;;18.93;5.20;;;;;;;;;;5071280;28;20441;-72
2021/08/26 04:34:47;;;;;;;11.40;4.37;;;;;;;;;;5073176;28;20441;-74
2021/08/26 04:37:16;;;;;;;17.47;5.20;;;;;;;;;;5072803;28;20531;-73
2021/08/26 04:39:43;;;;;;;15.43;4.80;;;;;;;;;;5077400;28;20442;-73
2021/08/26 04:42:10;;;;;;;7.77;4.83;;;;;;;;;;5076640;28;20443;-73
2021/08/26 04:44:37;;;;;;;11.20;5.33;;;;;;;;;;5076572;28;20436;-73
2021/08/26 04:47:04;;;;;;;13.60;4.70;;;;;;;;;;5076420;28;20451;-72
2021/08/26 04:49:32;;;;;;;9.67;5.20;;;;;;;;;;5076866;28;20448;-73
2021/08/26 04:51:59;;;;;;;12.23;4.60;;;;;;;;;;5076086;28;20536;-73
2021/08/26 04:54:28;;;;;;;20.93;5.20;;;;;;;;;;5075584;28;20440;-73
2021/08/26 04:56:55;;;;;;;12.13;4.23;;;;;;;;;;5076204;28;20515;-73
2021/08/26 04:59:22;;;;;;;11.90;4.73;;;;;;;;;;5076493;28;20567;-73
2021/08/26 05:01:49;;;;;;;12.23;4.13;;;;;;;;;;5074457;28;20444;-73
2021/08/26 05:04:22;;;;;;;13.83;5.30;;;;;;;;;;5076275;28;20454;-72
2021/08/26 05:06:50;;;;;;;15.83;4.70;;;;;;;;;;5076018;28;20429;-73
2021/08/26 05:09:17;;;;;;;18.70;5.20;;;;;;;;;;5075684;28;20935;-72
2021/08/26 05:11:46;;;;;;;9.80;4.57;;;;;;;;;;5074857;28;20952;-72
2021/08/26 05:14:13;;;;;;;14.33;4.10;;;;;;;;;;5074960;28;20444;-73
2021/08/26 05:16:40;;;;;;;11.33;5.03;;;;;;;;;;5075070;28;20802;-72
2021/08/26 05:19:07;;;;;;;13.10;5.33;;;;;;;;;;5075105;28;20807;-71
2021/08/26 05:21:34;;;;;;;12.63;4.17;;;;;;;;;;5075314;28;20424;-72
2021/08/26 05:24:02;;;;;;;18.00;5.00;;;;;;;;;;5075730;28;20464;-72
2021/08/26 05:26:29;;;;;;;12.50;5.13;;;;;;;;;;5075944;28;20441;-72
2021/08/26 05:28:57;;;;;;;7.30;4.70;;;;;;;;;;5075883;28;20446;-71
2021/08/26 05:31:24;;;;;;;11.70;4.10;;;;;;;;;;5076165;28;20864;-71
2021/08/26 05:33:52;;;;;;;10.17;4.33;;;;;;;;;;5076271;28;20436;-72
2021/08/26 05:36:19;;;;;;;14.43;4.40;;;;;;;;;;5076428;28;20432;-73
2021/08/26 05:38:46;;;;;;;15.07;4.77;;;;;;;;;;5075618;28;20861;-73
2021/08/26 05:41:13;;;;;;;13.33;3.47;;;;;;;;;;5075636;28;20930;-75
2021/08/26 05:43:40;;;;;;;10.30;5.73;;;;;;;;;;5075930;28;20785;-74
2021/08/26 05:46:10;;;;;;;14.60;4.43;;;;;;;;;;5075819;28;20429;-75
2021/08/26 05:48:37;;;;;;;10.30;3.90;;;;;;;;;;5074952;28;20450;-74
2021/08/26 05:51:05;;;;;;;11.90;4.60;;;;;;;;;;5074989;28;20437;-74
2021/08/26 05:53:38;;;;;;;11.67;4.33;;;;;;;;;;5075359;28;20451;-74
2021/08/26 05:56:06;;;;;;;7.17;3.80;;;;;;;;;;5076070;28;20429;-72
2021/08/26 05:58:33;;;;;;;10.70;4.50;;;;;;;;;;5075124;28;20572;-75
2021/08/26 06:01:00;;;;;;;8.43;3.50;;;;;;;;;;5075472;28;20525;-73
2021/08/26 06:03:29;;;;;;;9.97;4.40;;;;;;;;;;5075736;28;20454;-72
2021/08/26 06:05:56;;;;;;;12.20;3.97;;;;;;;;;;5075065;28;20444;-74
2021/08/26 06:08:27;;;;;;;11.10;4.40;;;;;;;;;;5075240;28;20449;-74
2021/08/26 06:10:54;;;;;;;14.77;6.03;;;;;;;;;;5075963;28;20499;-72
2021/08/26 06:13:21;;;;;;;14.60;6.30;;;;;;;;;;5075269;28;20504;-73
2021/08/26 06:15:49;;;;;;;11.90;4.03;;;;;;;;;;5074799;28;20523;-73
2021/08/26 06:18:17;;;;;;;9.17;4.37;;;;;;;;;;5074926;28;20485;-73
2021/08/26 06:20:46;;;;;;;21.77;5.67;;;;;;;;;;5074719;28;20444;-73
2021/08/26 06:23:13;;;;;;;12.33;4.23;;;;;;;;;;5074745;28;20493;-74
2021/08/26 06:25:40;;;;;;;14.97;3.60;;;;;;;;;;5075255;28;20445;-73
2021/08/26 06:28:07;;;;;;;11.43;4.47;;;;;;;;;;5075177;28;20453;-73
2021/08/26 06:30:35;;;;;;;8.90;4.27;;;;;;;;;;5074469;28;20455;-73
2021/08/26 06:33:02;;;;;;;9.13;3.67;;;;;;;;;;5074679;28;20446;-73
2021/08/26 06:35:29;;;;;;;8.77;3.37;;;;;;;;;;5074497;28;20484;-73
2021/08/26 06:37:58;;;;;;;10.80;3.93;;;;;;;;;;5074640;28;20446;-72
2021/08/26 06:40:25;;;;;;;14.80;3.27;;;;;;;;;;5074557;28;20789;-71
2021/08/26 06:42:52;;;;;;;11.50;4.10;;;;;;;;;;5074139;28;20463;-72
2021/08/26 06:45:19;;;;;;;10.67;4.20;;;;;;;;;;5074248;28;20934;-73
2021/08/26 06:47:47;;;;;;;17.47;4.50;;;;;;;;;;5075095;28;20437;-73
2021/08/26 06:50:14;;;;;;;14.60;4.20;;;;;;;;;;5074195;28;20535;-72
2021/08/26 06:52:41;;;;;;;17.70;5.17;;;;;;;;;;5074831;28;20801;-73
2021/08/26 06:55:10;;;;;;;12.23;4.60;;;;;;;;;;5074150;28;20520;-73
2021/08/26 06:57:37;;;;;;;16.20;4.07;;;;;;;;;;5074385;28;20474;-73
2021/08/26 07:00:05;;;;;;;9.00;3.90;;;;;;;;;;5074316;28;20478;-72
2021/08/26 07:02:32;;;;;;;7.10;3.47;;;;;;;;;;5074204;28;20843;-73
2021/08/26 07:04:59;;;;;;;9.30;3.70;;;;;;;;;;5074277;28;20471;-73
2021/08/26 07:07:26;;;;;;;9.23;4.83;;;;;;;;;;5074177;28;20438;-73
2021/08/26 07:09:54;;;;;;;11.73;4.87;;;;;;;;;;5074147;28;20455;-72
2021/08/26 07:12:22;;;;;;;9.73;3.50;;;;;;;;;;5074109;28;20445;-73
2021/08/26 07:14:49;;;;;;;7.57;2.83;;;;;;;;;;5073766;28;20473;-73
2021/08/26 07:17:17;;;;;;;9.90;3.60;;;;;;;;;;5073469;28;20911;-72
2021/08/26 07:19:44;;;;;;;10.87;4.23;;;;;;;;;;5073552;28;20991;-73
2021/08/26 07:22:11;;;;;;;16.33;3.80;;;;;;;;;;5073511;28;20945;-73
2021/08/26 07:24:38;;;;;;;6.37;3.63;;;;;;;;;;5074436;28;20865;-73
2021/08/26 07:27:05;;;;;;;10.20;4.20;;;;;;;;;;5073810;28;20529;-73
2021/08/26 07:29:34;;;;;;;9.40;3.80;;;;;;;;;;5073843;28;20444;-73
2021/08/26 07:32:01;;;;;;;11.13;4.77;;;;;;;;;;5073430;28;20447;-74
2021/08/26 07:34:28;;;;;;;8.77;4.27;;;;;;;;;;5074490;28;20463;-74
2021/08/26 07:36:55;;;;;;;11.40;4.40;;;;;;;;;;5073361;28;20527;-73
2021/08/26 07:39:22;;;;;;;8.97;4.47;;;;;;;;;;5073244;28;20468;-73
2021/08/26 07:41:50;;;;;;;8.93;3.37;;;;;;;;;;5074202;28;20445;-73
2021/08/26 07:44:17;;;;;;;8.53;4.07;;;;;;;;;;5073545;28;20447;-73
2021/08/26 07:46:45;;;;;;;7.20;3.57;;;;;;;;;;5073785;28;20442;-74
2021/08/26 07:49:13;;;;;;;15.13;4.30;;;;;;;;;;5073412;28;20450;-73
2021/08/26 07:51:40;;;;;;;12.00;4.23;;;;;;;;;;5073502;28;21008;-73
2021/08/26 07:54:07;;;;;;;19.77;4.90;;;;;;;;;;5073879;28;20471;-73
2021/08/26 07:56:35;;;;;;;9.43;4.80;;;;;;;;;;5073349;28;20441;-74
2021/08/26 07:59:02;;;;;;;17.00;5.37;;;;;;;;;;5073349;28;20480;-74
2021/08/26 08:01:29;;;;;;;14.43;4.70;;;;;;;;;;5072999;28;20445;-73
2021/08/26 08:03:58;;;;;;;14.13;4.87;;;;;;;;;;5073730;28;20807;-74
2021/08/26 08:06:25;;;;;;;10.20;4.00;;;;;;;;;;5073924;28;20448;-74
2021/08/26 08:08:52;;;;;;;12.60;4.20;;;;;;;;;;5073301;28;20842;-74
2021/08/26 08:11:20;;;;;;;16.60;4.23;;;;;;;;;;5073389;28;20445;-74
2021/08/26 08:13:47;;;;;;;13.00;4.17;;;;;;;;;;5075769;28;20472;-73
2021/08/26 08:16:14;;;;;;;14.90;4.53;;;;;;;;;;5077186;28;20452;-74
2021/08/26 08:18:41;;;;;;;13.80;4.33;;;;;;;;;;5077329;28;20575;-73
2021/08/26 08:21:10;;;;;;;11.40;4.23;;;;;;;;;;5077075;28;20444;-73
2021/08/26 08:23:37;;;;;;;10.80;4.27;;;;;;;;;;5077782;28;20468;-74
2021/08/26 08:26:10;;;;;;;15.40;4.87;;;;;;;;;;5077138;28;20539;-73
2021/08/26 08:28:37;;;;;;;15.17;5.20;;;;;;;;;;5077588;28;20443;-72
2021/08/26 08:31:05;;;;;;;10.13;4.50;;;;;;;;;;5077142;28;20442;-73
2021/08/26 08:33:32;;;;;;;10.60;4.00;;;;;;;;;;5076876;28;20459;-73
2021/08/26 08:35:59;;;;;;;14.30;4.67;;;;;;;;;;5077054;28;20911;-73
2021/08/26 08:38:28;;;;;;;11.23;4.70;;;;;;;;;;5076946;28;20780;-74
2021/08/26 08:40:55;;;;;;;9.43;4.90;;;;;;;;;;5076532;28;20448;-73
2021/08/26 08:43:22;;;;;;;8.20;4.60;;;;;;;;;;5076869;28;20451;-73
2021/08/26 08:45:50;;;;;;;15.73;4.07;;;;;;;;;;5076936;28;20443;-74
2021/08/26 08:48:17;;;;;;;13.07;4.63;;;;;;;;;;5076416;28;20455;-73
2021/08/26 08:50:45;;;;;;;13.00;5.30;;;;;;;;;;5076412;28;20455;-73
2021/08/26 08:53:13;;;;;;;19.70;5.97;;;;;;;;;;5076722;28;20432;-74
2021/08/26 08:55:43;;;;;;;11.03;5.93;;;;;;;;;;5076687;28;20439;-74
2021/08/26 08:58:10;;;;;;;15.30;5.07;;;;;;;;;;5076599;28;20441;-73
2021/08/26 09:00:38;;;;;;;20.57;6.00;;;;;;;;;;5077108;28;20487;-75
2021/08/26 09:03:05;;;;;;;18.50;5.60;;;;;;;;;;5076979;28;20547;-73
2021/08/26 09:05:53;;;;;;;14.33;5.23;;;;;;;;;;5076482;28;20455;-73
2021/08/26 09:08:22;;;;;;;14.73;5.23;;;;;;;;;;5076631;28;20967;-73
2021/08/26 09:10:52;;;;;;;23.27;4.97;;;;;;;;;;5076470;28;20444;-74
2021/08/26 09:13:28;;;;;;;9.60;4.53;;;;;;;;;;5076095;28;20965;-73
2021/08/26 09:15:55;;;;;;;14.37;4.73;;;;;;;;;;5076753;28;20446;-73
2021/08/26 09:18:22;;;;;;;14.00;5.03;;;;;;;;;;5076658;28;20440;-73
2021/08/26 09:20:51;;;;;;;12.57;4.47;;;;;;;;;;5076122;28;20472;-74
2021/08/26 09:23:18;;;;;;;13.37;4.70;;;;;;;;;;5076391;28;20467;-73
2021/08/26 09:25:45;;;;;;;10.60;6.13;;;;;;;;;;5076134;28;20803;-73
2021/08/26 09:28:27;;;;;;;10.67;4.50;;;;;;;;;;5076939;28;20445;-73
2021/08/26 09:31:09;;;;;;;10.87;5.70;;;;;;;;;;5076145;28;20435;-74
2021/08/26 09:33:47;;;;;;;9.77;4.60;;;;;;;;;;5076161;28;20445;-73
2021/08/26 09:36:17;;;;;;;10.77;4.20;;;;;;;;;;5076063;28;20443;-73
2021/08/26 09:38:49;;;;;;;14.70;5.17;;;;;;;;;;5076656;28;20507;-73
2021/08/26 09:41:17;;;;;;;13.03;4.60;;;;;;;;;;5075910;28;20469;-73
2021/08/26 09:43:45;;;;;;;13.53;4.60;;;;;;;;;;5075793;28;20438;-73
2021/08/26 09:46:29;;;;;;;18.77;6.57;;;;;;;;;;5075458;28;20451;-73
2021/08/26 09:49:02;;;;;;;13.53;5.07;;;;;;;;;;5075886;28;20832;-73
2021/08/26 09:51:29;;;;;;;12.13;4.37;;;;;;;;;;5076024;28;20862;-73
2021/08/26 09:53:56;;;;;;;11.93;4.73;;;;;;;;;;5075798;28;20437;-73
2021/08/26 09:56:23;;;;;;;12.27;4.53;;;;;;;;;;5075213;28;20555;-74
2021/08/26 09:58:56;;;;;;;12.40;4.77;;;;;;;;;;5075342;28;20952;-73
2021/08/26 10:01:24;;;;;;;19.63;6.17;;;;;;;;;;5075805;28;20960;-72
2021/08/26 10:03:51;;;;;;;12.83;5.13;;;;;;;;;;5074919;28;20453;-73
2021/08/26 10:06:20;;;;;;;9.97;4.47;;;;;;;;;;5074894;28;20487;-73
2021/08/26 10:08:48;;;;;;;15.43;4.97;;;;;;;;;;5075569;28;20437;-73
2021/08/26 10:11:17;;;;;;;17.43;5.77;;;;;;;;;;5075159;28;20440;-73
2021/08/26 10:13:44;;;;;;;14.47;5.23;;;;;;;;;;5074936;28;20433;-73
2021/08/26 10:16:13;;;;;;;11.17;4.77;;;;;;;;;;5075525;28;20453;-73
2021/08/26 10:18:40;;;;;;;11.57;4.83;;;;;;;;;;5075800;28;20563;-73
2021/08/26 10:21:09;;;;;;;15.47;4.87;;;;;;;;;;5075229;28;20474;-73
2021/08/26 10:23:37;;;;;;;10.83;4.37;;;;;;;;;;5075576;28;20479;-73
2021/08/26 10:26:07;;;;;;;12.77;5.20;;;;;;;;;;5074992;28;20450;-73
2021/08/26 10:28:36;;;;;;;7.00;4.07;;;;;;;;;;5075160;28;20429;-73
2021/08/26 10:31:18;;;;;;;12.70;5.07;;;;;;;;;;5074777;28;20480;-73
2021/08/26 10:33:47;;;;;;;12.00;4.93;;;;;;;;;;5074431;28;20454;-72
2021/08/26 10:36:15;;;;;;;11.80;5.00;;;;;;;;;;5074118;28;20790;-73
2021/08/26 10:38:42;;;;;;;12.77;4.90;;;;;;;;;;5074492;28;20446;-73
2021/08/26 10:41:36;;;;;;;12.50;4.73;;;;;;;;;;5074701;28;20480;-73
2021/08/26 10:44:04;;;;;;;21.97;6.43;;;;;;;;;;5028425;28;20536;-73
2021/08/26 10:46:49;;;;;;;8.73;5.17;;;;;;;;;;5074273;28;20452;-73
2021/08/26 10:49:18;;;;;;;13.47;5.37;;;;;;;;;;5074666;28;20532;-73
2021/08/26 10:51:47;;;;;;;18.57;5.63;;;;;;;;;;5074629;28;20537;-73
2021/08/26 10:54:24;;;;;;;15.57;6.10;;;;;;;;;;5074713;28;20441;-74
2021/08/26 10:56:51;;;;;;;12.20;4.23;;;;;;;;;;5074978;28;20435;-73
2021/08/26 10:59:27;;;;;;;18.33;4.13;;;;;;;;;;5074554;28;20466;-73
2021/08/26 11:01:54;;;;;;;15.90;6.10;;;;;;;;;;5074745;28;20443;-73
2021/08/26 11:04:27;;;;;;;11.67;5.03;;;;;;;;;;5074528;28;20455;-73
2021/08/26 11:06:55;;;;;;;10.17;5.00;;;;;;;;;;5074550;28;20521;-73
2021/08/26 11:09:32;;;;;;;17.17;6.40;;;;;;;;;;5074136;28;20443;-73
2021/08/26 11:12:04;;;;;;;15.33;5.50;;;;;;;;;;5073997;28;20915;-73
2021/08/26 11:14:33;;;;;;;12.30;4.97;;;;;;;;;;5074457;28;20434;-73
2021/08/26 11:17:02;;;;;;;10.20;4.13;;;;;;;;;;5074035;28;20856;-73
2021/08/26 11:19:35;;;;;;;12.87;5.03;;;;;;;;;;5073540;28;20445;-73
2021/08/26 11:22:03;;;;;;;7.67;4.20;;;;;;;;;;5074024;28;20431;-72
2021/08/26 11:24:51;;;;;;;12.40;5.37;;;;;;;;;;5074004;28;20440;-72
2021/08/26 11:27:19;;;;;;;10.73;4.40;;;;;;;;;;5073484;28;20450;-71
2021/08/26 11:29:46;;;;;;;18.03;4.70;;;;;;;;;;5073691;28;20542;-71
2021/08/26 11:32:15;;;;;;;7.73;3.73;;;;;;;;;;5073744;28;20441;-72
2021/08/26 11:34:44;;;;;;;11.27;5.47;;;;;;;;;;5073779;28;20446;-72
2021/08/26 11:37:12;;;;;;;13.10;4.57;;;;;;;;;;5073416;28;20456;-72
2021/08/26 11:39:40;;;;;;;12.90;4.60;;;;;;;;;;5073591;28;20569;-72
2021/08/26 11:42:08;;;;;;;7.90;4.30;;;;;;;;;;5073453;28;20938;-72
2021/08/26 11:44:36;;;;;;;12.10;4.80;;;;;;;;;;5073898;28;20464;-72
2021/08/26 11:47:03;;;;;;;12.63;5.00;;;;;;;;;;5073331;28;20456;-72
2021/08/26 11:49:34;;;;;;;15.00;4.43;;;;;;;;;;5073567;28;20469;-72
2021/08/26 11:52:08;;;;;;;10.43;4.77;;;;;;;;;;5073913;28;20431;-72
2021/08/26 11:54:39;;;;;;;14.30;5.30;;;;;;;;;;5073235;28;20460;-72
2021/08/26 11:57:06;;;;;;;8.87;4.30;;;;;;;;;;5073503;28;20451;-71
2021/08/26 11:59:35;;;;;;;10.57;4.00;;;;;;;;;;5073497;28;20442;-72
2021/08/26 12:02:33;;;;;;;11.37;5.00;;;;;;;;;;5073124;28;20444;-72
2021/08/26 12:05:02;;;;;;;9.80;4.33;;;;;;;;;;5074180;28;20421;-71
2021/08/26 12:07:32;;;;;;;6.23;3.77;;;;;;;;;;5073380;28;20449;-72
2021/08/26 12:10:06;;;;;;;10.83;3.93;;;;;;;;;;5073135;28;20464;-73
2021/08/26 12:12:33;;;;;;;11.47;4.00;;;;;;;;;;5073998;28;20813;-73
2021/08/26 12:15:00;;;;;;;12.13;3.90;;;;;;;;;;5073302;28;20442;-71
2021/08/26 12:17:35;;;;;;;12.80;4.50;;;;;;;;;;5073321;28;20457;-73
2021/08/26 12:20:03;;;;;;;13.97;4.67;;;;;;;;;;5073519;28;20480;-74
2021/08/26 12:22:32;;;;;;;13.27;4.60;;;;;;;;;;5073190;28;20471;-73
2021/08/26 12:25:00;;;;;;;8.47;4.00;;;;;;;;;;5073839;28;20471;-72
2021/08/26 12:27:28;;;;;;;8.13;4.17;;;;;;;;;;5073133;28;20445;-73
2021/08/26 12:29:56;;;;;;;8.90;3.57;;;;;;;;;;5073034;28;20441;-73
2021/08/26 12:32:28;;;;;;;13.03;4.80;;;;;;;;;;5073131;28;20442;-73
2021/08/26 12:35:12;;;;;;;16.27;6.03;;;;;;;;;;5073261;28;20773;-73
2021/08/26 12:37:50;;;;;;;11.83;4.00;;;;;;;;;;5072788;28;20441;-73
2021/08/26 12:40:18;;;;;;;9.07;3.67;;;;;;;;;;5072746;28;20468;-73
2021/08/26 12:42:56;;;;;;;7.90;3.67;;;;;;;;;;5073080;28;20801;-73
2021/08/26 12:45:24;;;;;;;12.23;4.00;;;;;;;;;;5073524;28;20427;-74
2021/08/26 12:47:51;;;;;;;8.13;3.83;;;;;;;;;;5072635;28;20437;-73
2021/08/26 12:50:26;;;;;;;13.13;4.40;;;;;;;;;;5072606;28;20939;-73
2021/08/26 12:52:55;;;;;;;16.57;4.60;;;;;;;;;;5073428;28;20512;-72
2021/08/26 12:55:22;;;;;;;16.40;5.13;;;;;;;;;;5072934;28;20496;-71
2021/08/26 12:57:50;;;;;;;22.57;5.67;;;;;;;;;;5072586;28;20504;-72
2021/08/26 13:00:36;;;;;;;7.70;3.70;;;;;;;;;;5076207;28;20478;-73
2021/08/26 13:03:03;;;;;;;12.33;4.77;;;;;;;;;;5076526;28;20441;-72
2021/08/26 13:05:31;;;;;;;14.60;4.50;;;;;;;;;;5076635;28;20445;-71
2021/08/26 13:08:01;;;;;;;14.77;4.80;;;;;;;;;;5076187;28;20453;-73
2021/08/26 13:10:28;;;;;;;12.70;4.87;;;;;;;;;;5076112;28;20951;-73
2021/08/26 13:13:08;;;;;;;10.33;3.93;;;;;;;;;;5076071;28;20903;-72
2021/08/26 13:15:35;;;;;;;9.13;3.70;;;;;;;;;;5076256;28;20468;-72
2021/08/26 13:18:03;;;;;;;7.53;3.90;;;;;;;;;;5076380;28;20437;-73
2021/08/26 13:20:30;;;;;;;10.33;3.30;;;;;;;;;;5075814;28;20544;-72
2021/08/26 13:22:57;;;;;;;7.80;4.20;;;;;;;;;;5075872;28;20828;-73
2021/08/26 13:25:26;;;;;;;10.33;4.33;;;;;;;;;;5076439;28;20445;-69
2021/08/26 13:27:55;;;;;;;6.97;3.20;;;;;;;;;;5076112;28;20533;-74
2021/08/26 13:30:22;;;;;;;9.73;4.03;;;;;;;;;;5076629;28;20456;-73
2021/08/26 13:32:50;;;;;;;14.10;4.43;;;;;;;;;;5076030;28;20442;-73
2021/08/26 13:35:17;;;;;;;9.17;4.00;;;;;;;;;;5075667;28;20540;-74
2021/08/26 13:37:46;;;;;;;6.60;4.30;;;;;;;;;;5076010;28;20445;-73
2021/08/26 13:40:14;;;;;;;9.20;3.73;;;;;;;;;;5075844;28;20537;-72
2021/08/26 13:42:43;;;;;;;7.17;3.70;;;;;;;;;;5074872;28;20519;-73
2021/08/26 13:45:11;;;;;;;8.30;4.43;;;;;;;;;;5074377;28;20472;-72
2021/08/26 13:47:38;;;;;;;8.70;4.63;;;;;;;;;;5074944;28;20567;-72
2021/08/26 13:50:06;;;;;;;14.33;4.53;;;;;;;;;;5074631;28;20445;-73
2021/08/26 13:52:33;;;;;;;6.27;4.30;;;;;;;;;;5075336;28;20446;-73
2021/08/26 13:55:01;;;;;;;12.80;4.27;;;;;;;;;;5075184;28;20441;-74
2021/08/26 13:57:28;;;;;;;10.70;4.53;;;;;;;;;;5074643;28;20437;-72
2021/08/26 13:59:57;;;;;;;10.67;4.90;;;;;;;;;;5075055;28;20880;-72
2021/08/26 14:02:24;;;;;;;11.90;4.70;;;;;;;;;;5074535;28;20488;-72
2021/08/26 14:04:52;;;;;;;10.47;4.80;;;;;;;;;;5075310;28;20528;-73
2021/08/26 14:07:19;;;;;;;14.17;4.03;;;;;;;;;;5074560;28;20877;-72
2021/08/26 14:09:48;;;;;;;11.70;4.90;;;;;;;;;;5073626;28;20783;-72
2021/08/26 14:12:15;;;;;;;12.73;5.00;;;;;;;;;;5074327;28;20455;-73
2021/08/26 14:14:42;;;;;;;14.97;5.60;;;;;;;;;;5073733;28;20446;-73
2021/08/26 14:17:10;;;;;;;6.13;4.07;;;;;;;;;;5074646;28;20533;-73
2021/08/26 14:19:38;;;;;;;9.03;4.10;;;;;;;;;;5075400;28;20450;-73
2021/08/26 14:22:05;;;;;;;11.10;5.20;;;;;;;;;;5074270;28;20572;-72
2021/08/26 14:24:32;;;;;;;11.30;5.00;;;;;;;;;;5075582;28;20423;-72
2021/08/26 14:26:59;;;;;;;10.00;4.63;;;;;;;;;;5074686;28;20450;-72
2021/08/26 14:29:26;;;;;;;5.40;3.60;;;;;;;;;;5074609;28;20443;-72
2021/08/26 14:31:55;;;;;;;8.30;4.60;;;;;;;;;;5074809;28;20453;-73
2021/08/26 14:34:23;;;;;;;18.93;5.27;;;;;;;;;;5074991;28;20458;-73
2021/08/26 14:36:51;;;;;;;18.97;4.70;;;;;;;;;;5074439;28;20950;-74
2021/08/26 14:39:19;;;;;;;33.27;27.47;;;;;;;;;;5075074;28;20469;-72
2021/08/26 14:41:46;;;;;;;13.53;6.20;;;;;;;;;;5074008;28;20477;-74
2021/08/26 14:44:13;;;;;;;10.70;5.50;;;;;;;;;;5072640;28;20446;-72